Time;durP1;ratioP1;P1;durP2;ratioP2;P2;SDS_P1;SDS_P2;PMS_P1;PMS_P2;Temp;Humidity;BMP_temperature;BMP_pressure;BME280_temperature;BME280_humidity;BME280_pressure;Samples;Min_cycle;Max_cycle;Signal;HPM_P1;HPM_P2
2022/01/12 00:00:39;;;;;;;64.22;31.60;;;;;;;-2.22;88.10;102001.22;10425642;28;20061;-74
2022/01/12 00:05:42;;;;;;;69.93;32.35;;;;;;;-2.17;87.34;102007.50;10407305;28;20042;-74
2022/01/12 00:10:44;;;;;;;70.03;32.08;;;;;;;-2.42;88.14;102006.25;10424654;28;20053;-74
2022/01/12 00:15:46;;;;;;;71.50;35.03;;;;;;;-2.43;88.75;102016.47;10443168;23;20107;-72
2022/01/12 00:20:49;;;;;;;77.68;34.55;;;;;;;-2.40;88.80;102012.34;10411081;28;20096;-72
2022/01/12 00:36:23;;;;;;;60.10;30.75;;;;;;;-2.35;88.96;102003.16;10428178;28;20041;-72
2022/01/12 00:41:24;;;;;;;63.95;31.13;;;;;;;-2.39;88.90;102002.91;10409271;28;20462;-72
2022/01/12 00:46:28;;;;;;;60.55;30.70;;;;;;;-2.32;88.65;102005.03;10409355;28;20049;-72
2022/01/12 00:51:32;;;;;;;66.45;31.33;;;;;;;-1.94;86.17;102001.84;10407015;28;20053;-75
2022/01/12 00:56:35;;;;;;;69.50;31.23;;;;;;;-2.33;87.05;101999.00;10408072;28;20099;-72
2022/01/12 01:01:37;;;;;;;70.68;31.85;;;;;;;-1.90;86.79;102003.75;10423705;28;20046;-71
2022/01/12 01:06:39;;;;;;;67.80;30.88;;;;;;;-2.32;87.31;102011.06;10423934;28;20041;-72
2022/01/12 01:11:41;;;;;;;67.15;30.23;;;;;;;-2.04;88.48;102010.81;10407986;28;20041;-72
2022/01/12 01:25:22;;;;;;;49.05;26.92;;;;;;;-2.36;88.41;102003.09;10408367;28;20509;-72
2022/01/12 01:27:37;;;;;;;51.58;27.40;;;;;;;-2.54;90.14;102000.44;10405595;28;20137;-72
2022/01/12 01:32:40;;;;;;;51.58;26.65;;;;;;;-2.53;89.70;102004.78;10406014;28;20072;-71
2022/01/12 01:37:45;;;;;;;45.75;25.63;;;;;;;-2.46;89.56;102012.03;10389343;28;20045;-71
2022/01/12 01:53:20;;;;;;;44.13;23.90;;;;;;;-2.52;88.44;102006.56;10407295;28;20049;-72
2022/01/12 01:58:21;;;;;;;40.17;23.88;;;;;;;-2.36;87.25;102005.66;10389566;28;20045;-73
2022/01/12 02:03:29;;;;;;;31.13;21.75;;;;;;;-2.44;87.72;102002.69;10405527;28;20053;-73
2022/01/12 02:08:35;;;;;;;42.35;22.98;;;;;;;-2.30;87.31;102006.88;10422158;28;20066;-72
2022/01/12 02:13:54;;;;;;;36.65;22.15;;;;;;;-2.32;86.65;102003.31;10403190;28;20095;-72
2022/01/12 02:19:12;;;;;;;32.08;21.00;;;;;;;-2.02;84.78;101992.81;10402749;28;20041;-73
2022/01/12 02:40:16;;;;;;;39.17;21.10;;;;;;;-2.38;84.04;102003.03;10401864;28;20049;-72
2022/01/12 02:50:47;;;;;;;32.10;21.08;;;;;;;-2.05;82.21;101990.97;10420105;28;20053;-71
2022/01/12 02:55:49;;;;;;;40.92;21.73;;;;;;;-2.44;83.51;101994.94;10420250;28;20037;-71
2022/01/12 03:06:26;;;;;;;33.33;20.95;;;;;;;-2.50;84.59;101989.50;10399973;28;20054;-71
2022/01/12 03:11:28;;;;;;;41.50;20.35;;;;;;;-2.39;83.22;101992.63;10400936;28;20065;-73
2022/01/12 03:16:35;;;;;;;33.45;20.33;;;;;;;-2.33;83.68;101983.53;10384024;28;20052;-71
2022/01/12 03:21:43;;;;;;;35.80;20.48;;;;;;;-2.55;84.62;101983.22;10401331;28;20057;-73
2022/01/12 03:26:47;;;;;;;32.15;21.00;;;;;;;-2.70;85.20;101980.75;10402363;28;20084;-72
2022/01/12 03:31:49;;;;;;;39.25;22.70;;;;;;;-2.68;85.73;101983.38;10404457;28;20051;-72
2022/01/12 03:42:12;;;;;;;33.13;20.77;;;;;;;-2.60;84.79;101985.56;10425135;28;20037;-71
2022/01/12 03:47:15;;;;;;;38.83;21.33;;;;;;;-2.78;84.81;101989.75;10425052;28;20117;-72
2022/01/12 03:52:17;;;;;;;34.17;21.08;;;;;;;-2.64;83.97;101993.94;10424585;28;20040;-72
2022/01/12 03:57:21;;;;;;;29.23;20.75;;;;;;;-2.40;83.08;101989.16;10406755;28;20409;-72
2022/01/12 04:02:24;;;;;;;31.35;21.25;;;;;;;-2.59;83.50;101987.31;10407406;28;20084;-72
2022/01/12 04:12:46;;;;;;;28.00;18.98;;;;;;;-2.69;83.70;101982.50;10425788;28;20046;-72
2022/01/12 04:17:48;;;;;;;40.15;22.02;;;;;;;-2.40;82.82;101986.59;10426026;28;20116;-73
2022/01/12 04:28:11;;;;;;;40.58;23.02;;;;;;;-2.85;85.01;101993.66;10404807;28;20042;-73
2022/01/12 04:33:13;;;;;;;41.70;22.60;;;;;;;-2.19;82.23;101993.66;10405298;28;20045;-73
2022/01/12 04:38:17;;;;;;;41.20;22.65;;;;;;;-2.33;82.69;101987.81;10404526;28;20049;-73
2022/01/12 04:43:22;;;;;;;34.08;20.77;;;;;;;-2.15;81.72;101996.47;10421353;28;20486;-73
2022/01/12 04:53:33;;;;;;;45.55;22.70;;;;;;;-2.20;82.07;102007.34;10422516;28;20041;-72
2022/01/12 04:58:36;;;;;;;37.80;22.17;;;;;;;-2.37;83.72;102017.66;10407429;28;20073;-72
2022/01/12 05:09:15;;;;;;;37.05;22.77;;;;;;;-2.19;83.09;102017.72;10404877;28;20510;-72
2022/01/12 05:14:21;;;;;;;36.33;22.42;;;;;;;-2.12;82.94;102019.81;10404599;28;20108;-72
2022/01/12 05:19:22;;;;;;;36.72;22.98;;;;;;;-2.17;82.97;102012.66;10403715;28;20041;-71
2022/01/12 05:24:24;;;;;;;45.58;23.58;;;;;;;-2.33;84.19;102023.88;10422707;28;20064;-71
2022/01/12 05:29:26;;;;;;;36.95;21.90;;;;;;;-2.29;84.57;102011.22;10405746;28;20038;-72
2022/01/12 05:34:29;;;;;;;39.40;24.00;;;;;;;-2.46;85.39;102021.44;10406821;28;20041;-72
2022/01/12 05:39:30;;;;;;;35.88;22.85;;;;;;;-2.34;84.11;102034.97;10423685;28;20133;-71
2022/01/12 05:44:53;;;;;;;44.58;24.35;;;;;;;-2.28;84.77;102025.88;10404696;28;20053;-73
2022/01/12 05:49:55;;;;;;;42.92;24.08;;;;;;;-2.49;85.23;102023.84;10421776;28;20037;-71
2022/01/12 05:54:57;;;;;;;50.50;26.40;;;;;;;-2.44;85.07;102032.69;10403110;28;20041;-73
2022/01/12 05:59:59;;;;;;;50.45;24.95;;;;;;;-2.32;84.29;102030.78;10403265;28;20494;-73
2022/01/12 06:05:04;;;;;;;50.05;25.17;;;;;;;-2.46;84.78;102035.22;10403136;28;20113;-72
2022/01/12 06:10:06;;;;;;;48.35;25.17;;;;;;;-2.52;85.53;102034.91;10403089;28;20044;-72
2022/01/12 06:15:08;;;;;;;50.33;24.30;;;;;;;-2.33;84.53;102041.91;10459716;22;20410;-73
2022/01/12 06:20:10;;;;;;;39.60;23.35;;;;;;;-2.08;82.82;102044.94;10465639;28;20116;-73
2022/01/12 06:25:31;;;;;;;38.72;23.50;;;;;;;-2.40;84.72;102045.81;10466758;28;20045;-72
2022/01/12 06:35:56;;;;;;;43.65;24.15;;;;;;;-2.44;85.41;102056.75;10465715;28;20124;-73
2022/01/12 06:41:01;;;;;;;46.03;26.30;;;;;;;-2.14;84.64;102066.91;10430653;28;20049;-74
2022/01/12 06:46:05;;;;;;;49.03;25.65;;;;;;;-2.15;85.40;102066.03;10429626;28;20103;-73
2022/01/12 06:51:07;;;;;;;46.55;25.25;;;;;;;-1.76;82.65;102056.00;10444712;28;20098;-73
2022/01/12 06:56:09;;;;;;;48.65;25.55;;;;;;;-1.87;82.73;102075.19;10458982;28;20045;-72
2022/01/12 07:01:16;;;;;;;48.88;25.30;;;;;;;-2.16;84.11;102081.44;10441649;28;20049;-74
2022/01/12 07:06:21;;;;;;;53.85;27.02;;;;;;;-2.30;84.83;102073.84;10444847;28;20037;-72
2022/01/12 07:11:23;;;;;;;49.42;25.77;;;;;;;-2.29;85.22;102082.47;10447683;28;20175;-72
2022/01/12 07:16:32;;;;;;;54.40;26.90;;;;;;;-2.17;85.13;102083.13;10446487;28;20136;-72
2022/01/12 07:21:35;;;;;;;55.05;28.42;;;;;;;-2.25;84.76;102081.81;10446300;28;20045;-73
2022/01/12 07:26:37;;;;;;;48.15;25.70;;;;;;;-2.14;84.38;102070.38;10447375;28;20037;-74
2022/01/12 07:31:39;;;;;;;52.30;24.45;;;;;;;-2.03;84.08;102071.84;10445975;28;20525;-72
2022/01/12 07:36:42;;;;;;;47.47;26.60;;;;;;;-1.92;84.56;102074.06;10464493;28;20037;-72
2022/01/12 07:41:43;;;;;;;56.20;26.23;;;;;;;-1.94;83.99;102065.38;10465132;28;20051;-72
2022/01/12 07:46:45;;;;;;;52.10;26.50;;;;;;;-2.03;84.16;102064.09;10463609;28;20041;-72
2022/01/12 07:51:46;;;;;;;53.65;25.92;;;;;;;-1.87;83.91;102091.53;10464062;28;20095;-73
2022/01/12 07:56:48;;;;;;;50.80;25.30;;;;;;;-1.84;84.13;102095.97;10462498;28;20051;-71
2022/01/12 08:01:49;;;;;;;52.22;24.80;;;;;;;-1.66;83.05;102090.88;10462982;28;20103;-72
2022/01/12 08:06:52;;;;;;;45.33;25.10;;;;;;;-1.65;82.38;102098.66;10444256;28;20127;-72
2022/01/12 08:11:53;;;;;;;55.05;26.27;;;;;;;-1.62;82.45;102098.84;10462777;28;20052;-72
2022/01/12 08:16:55;;;;;;;54.55;26.48;;;;;;;-1.67;83.23;102105.47;10460993;28;20052;-72
2022/01/12 08:22:02;;;;;;;48.08;23.80;;;;;;;-1.47;83.01;102095.25;10445620;28;20041;-72
2022/01/12 08:27:04;;;;;;;52.28;26.65;;;;;;;-1.63;83.00;102091.03;10461410;28;20060;-72
2022/01/12 08:32:06;;;;;;;55.20;27.58;;;;;;;-1.71;83.63;102092.34;10443298;28;20053;-73
2022/01/12 08:37:08;;;;;;;67.85;26.55;;;;;;;-1.44;82.89;102092.84;10462154;28;20056;-72
2022/01/12 08:42:09;;;;;;;57.42;26.23;;;;;;;-1.31;82.09;102105.53;10442408;28;20391;-73
2022/01/12 08:47:15;;;;;;;51.58;26.73;;;;;;;-1.19;81.96;102097.53;10481933;28;20588;-73
2022/01/12 08:52:17;;;;;;;56.65;25.95;;;;;;;-1.10;80.42;102095.38;10508478;28;20040;-72
2022/01/12 08:57:18;;;;;;;58.53;26.17;;;;;;;-1.09;81.04;102103.19;10451063;28;20049;-70
2022/01/12 09:02:20;;;;;;;49.35;27.48;;;;;;;-0.97;81.30;102110.66;10467773;28;20040;-73
2022/01/12 09:07:22;;;;;;;54.50;26.35;;;;;;;-1.04;81.64;102113.75;10477652;28;20051;-73
2022/01/12 09:12:29;;;;;;;52.35;27.08;;;;;;;-0.94;81.04;102125.38;10471542;28;20098;-73
2022/01/12 09:17:31;;;;;;;;;;;;;;;-0.38;78.64;102122.03;10494541;28;20032;-72
2022/01/12 09:22:40;;;;;;;55.15;26.25;;;;;;;-0.14;77.66;102128.28;10490020;28;19947;-72
2022/01/12 09:27:42;;;;;;;58.83;28.15;;;;;;;-0.03;77.77;102111.56;10471956;28;20056;-72
2022/01/12 09:32:45;;;;;;;50.50;25.60;;;;;;;-0.10;78.32;102114.69;10447817;28;20037;-72
2022/01/12 09:37:50;;;;;;;49.40;26.47;;;;;;;-0.17;79.19;102102.31;10466245;28;20037;-72
2022/01/12 09:42:53;;;;;;;47.00;24.70;;;;;;;0.54;76.27;102102.81;10446946;28;20418;-72
2022/01/12 09:47:54;;;;;;;47.88;26.50;;;;;;;0.75;76.26;102106.25;10462573;28;20457;-73
2022/01/12 09:52:56;;;;;;;72.75;30.85;;;;;;;0.63;76.46;102105.78;10446642;28;20049;-72
2022/01/12 09:57:58;;;;;;;46.00;25.40;;;;;;;0.65;76.15;102104.13;10467951;28;20120;-72
2022/01/12 10:03:11;;;;;;;50.05;26.20;;;;;;;1.07;74.47;102093.75;10451340;28;20146;-73
2022/01/12 10:08:15;;;;;;;50.22;24.58;;;;;;;0.99;75.31;102102.09;10451195;28;20025;-73
2022/01/12 10:13:24;;;;;;;35.05;23.33;;;;;;;1.14;75.15;102098.34;10469378;28;20041;-72
2022/01/12 10:18:26;;;;;;;42.75;25.30;;;;;;;1.33;74.07;102125.84;10452490;28;20082;-73
2022/01/12 10:23:28;;;;;;;35.55;23.00;;;;;;;1.31;74.72;102115.44;10465759;28;20049;-73
2022/01/12 10:28:30;;;;;;;43.85;23.35;;;;;;;1.34;73.51;102099.16;10464087;28;20491;-75
2022/01/12 10:33:33;;;;;;;31.75;21.83;;;;;;;1.43;74.81;102095.19;10461896;28;20049;-73
2022/01/12 10:38:35;;;;;;;26.65;18.52;;;;;;;1.65;75.01;102083.94;10439851;28;20094;-73
2022/01/12 10:43:39;;;;;;;28.05;20.25;;;;;;;2.22;72.30;102071.28;10457977;28;20093;-73
2022/01/12 10:48:55;;;;;;;28.73;19.23;;;;;;;2.21;73.74;102082.50;10440506;28;20041;-74
2022/01/12 10:54:03;;;;;;;23.90;15.18;;;;;;;2.20;72.99;102083.31;10456704;28;20049;-73
2022/01/12 10:59:04;;;;;;;28.65;20.10;;;;;;;2.28;72.05;102070.63;10456894;28;20071;-74
2022/01/12 11:04:06;;;;;;;17.73;13.32;;;;;;;2.67;70.84;102060.69;10438452;28;20079;-75
2022/01/12 11:09:08;;;;;;;11.77;10.18;;;;;;;2.90;71.48;102055.34;10456352;28;20079;-73
2022/01/12 11:14:11;;;;;;;9.65;8.68;;;;;;;3.13;70.00;102051.75;10455980;28;20041;-73
2022/01/12 11:19:14;;;;;;;10.20;8.52;;;;;;;3.24;68.99;102047.78;10455240;28;20037;-75
2022/01/12 11:24:18;;;;;;;11.20;10.20;;;;;;;3.05;69.42;102037.63;10455910;28;20102;-74
2022/01/12 11:29:28;;;;;;;9.45;8.65;;;;;;;3.29;68.98;102037.53;10456400;28;20184;-74
2022/01/12 11:34:29;;;;;;;8.07;7.38;;;;;;;4.76;65.26;102023.25;10437795;28;20053;-74
2022/01/12 11:39:32;;;;;;;9.00;7.78;;;;;;;5.80;59.97;102018.56;10456478;28;20041;-75
2022/01/12 11:44:36;;;;;;;9.15;7.90;;;;;;;6.25;58.99;102022.91;10459052;28;20056;-74
2022/01/12 11:49:37;;;;;;;8.10;7.30;;;;;;;6.33;58.13;102020.44;10457281;28;20060;-75
2022/01/12 11:54:43;;;;;;;8.77;7.97;;;;;;;5.81;59.60;102025.53;10463008;28;20456;-74
2022/01/12 12:00:04;;;;;;;8.65;8.05;;;;;;;5.22;61.62;102013.84;10446573;28;20056;-76
2022/01/12 12:05:18;;;;;;;9.40;8.52;;;;;;;5.24;62.59;102014.78;10446840;28;20052;-75
2022/01/12 12:10:22;;;;;;;9.15;8.35;;;;;;;5.06;61.93;102000.50;10464076;28;20052;-76
2022/01/12 12:15:26;;;;;;;8.52;7.72;;;;;;;5.28;62.02;101999.25;10446005;22;20046;-73
2022/01/12 12:20:28;;;;;;;9.13;8.10;;;;;;;5.61;60.08;102006.00;10392212;28;20059;-73
2022/01/12 12:25:33;;;;;;;8.15;7.40;;;;;;;5.03;61.96;101997.81;10391034;28;20038;-73
2022/01/12 12:30:38;;;;;;;8.02;7.28;;;;;;;5.11;60.88;102008.44;10371627;28;20056;-73
2022/01/12 12:35:42;;;;;;;9.38;8.38;;;;;;;4.34;64.90;102010.94;10387623;28;20042;-73
2022/01/12 12:40:47;;;;;;;9.20;8.38;;;;;;;4.38;64.80;102025.78;10387393;28;20064;-73
2022/01/12 12:45:59;;;;;;;9.60;8.30;;;;;;;4.37;65.04;102026.63;10372772;28;20513;-74
2022/01/12 12:51:05;;;;;;;10.38;9.48;;;;;;;3.94;66.69;102022.94;10369301;28;20412;-73
2022/01/12 12:56:11;;;;;;;9.57;8.68;;;;;;;3.96;67.06;102044.66;10385730;28;20084;-73
2022/01/12 13:01:16;;;;;;;9.32;8.43;;;;;;;4.07;67.09;102049.25;10368544;28;20046;-74
2022/01/12 13:06:28;;;;;;;9.68;8.70;;;;;;;4.00;67.40;102046.50;10388700;28;20042;-73
2022/01/12 13:11:32;;;;;;;8.98;8.18;;;;;;;4.18;66.54;102053.03;10390854;28;20049;-74
2022/01/12 13:16:35;;;;;;;11.45;8.38;;;;;;;3.95;67.78;102035.09;10372373;28;20503;-72
2022/01/12 13:21:41;;;;;;;43.00;25.95;;;;;;;3.74;68.52;102042.28;10391158;28;20154;-73
2022/01/12 13:26:43;;;;;;;13.88;12.13;;;;;;;3.89;68.30;102053.13;10387365;28;20045;-73
2022/01/12 13:31:46;;;;;;;13.00;11.20;;;;;;;4.05;68.07;102063.13;10369828;28;20169;-73
2022/01/12 13:36:50;;;;;;;9.80;8.80;;;;;;;4.07;67.50;102049.25;10385563;28;20052;-73
2022/01/12 13:41:52;;;;;;;10.57;9.57;;;;;;;3.97;68.43;102056.81;10368032;28;20045;-73
2022/01/12 13:52:09;;;;;;;9.85;9.00;;;;;;;3.96;67.72;102036.84;10368963;28;20053;-73
2022/01/12 13:57:14;;;;;;;9.65;8.65;;;;;;;4.07;67.39;102044.06;10388544;28;20038;-73
2022/01/12 14:02:19;;;;;;;10.15;9.15;;;;;;;3.77;68.46;102045.88;10369081;28;20049;-74
2022/01/12 14:07:32;;;;;;;10.60;9.60;;;;;;;3.78;68.74;102051.94;10386995;28;20034;-73
2022/01/12 14:12:34;;;;;;;11.05;9.95;;;;;;;3.66;69.20;102059.41;10366356;28;20050;-73
2022/01/12 14:17:43;;;;;;;11.10;9.25;;;;;;;3.54;70.25;102052.09;10383684;28;20052;-74
2022/01/12 14:22:58;;;;;;;10.88;9.88;;;;;;;3.40;70.67;102049.09;10384708;28;20391;-74
2022/01/12 14:28:02;;;;;;;11.23;10.13;;;;;;;3.39;71.48;102039.56;10383683;28;20172;-72
2022/01/12 14:33:05;;;;;;;23.65;10.90;;;;;;;3.45;71.49;102029.34;10384945;28;20395;-74
2022/01/12 14:38:07;;;;;;;12.23;11.20;;;;;;;3.19;72.83;102031.19;10381474;28;20489;-74
2022/01/12 14:43:10;;;;;;;12.85;11.75;;;;;;;3.19;73.19;102019.91;10364073;28;20046;-72
2022/01/12 14:48:16;;;;;;;13.60;11.27;;;;;;;3.23;72.92;102016.53;10381717;28;20057;-73
2022/01/12 14:53:21;;;;;;;14.18;11.75;;;;;;;3.40;72.71;102012.72;10381130;28;20129;-73
2022/01/12 14:58:24;;;;;;;11.30;10.23;;;;;;;3.45;71.98;102012.84;10382494;28;20125;-75
2022/01/12 15:03:28;;;;;;;13.90;12.60;;;;;;;3.22;72.96;102010.44;10379042;28;20124;-74
2022/01/12 15:08:31;;;;;;;16.85;15.25;;;;;;;3.45;72.31;102018.03;10377401;28;20392;-72
2022/01/12 15:13:52;;;;;;;13.90;12.60;;;;;;;3.56;71.37;102020.97;10381197;28;20057;-73
2022/01/12 15:18:54;;;;;;;12.85;11.40;;;;;;;3.17;72.75;102011.16;10381442;28;20484;-73
2022/01/12 15:23:55;;;;;;;11.23;10.05;;;;;;;3.16;72.80;102005.09;10378984;28;20045;-73
2022/01/12 15:28:57;;;;;;;11.65;10.52;;;;;;;3.02;73.54;102015.06;10385529;28;20116;-73
2022/01/12 15:33:59;;;;;;;11.50;10.45;;;;;;;3.08;73.64;102027.34;10368837;28;20107;-73
2022/01/12 15:39:02;;;;;;;12.43;11.15;;;;;;;3.15;74.00;102036.22;10386828;28;20399;-73
2022/01/12 15:44:03;;;;;;;14.38;12.07;;;;;;;3.21;73.36;102045.09;10388989;28;20050;-73
2022/01/12 15:49:05;;;;;;;20.15;18.00;;;;;;;3.41;72.69;102034.38;10386919;28;20038;-72
2022/01/12 15:54:07;;;;;;;13.90;12.60;;;;;;;3.10;74.58;102045.56;10369637;28;20054;-74
2022/01/12 15:59:09;;;;;;;11.88;10.57;;;;;;;3.23;74.10;102046.03;10368297;28;20057;-74
2022/01/12 16:04:11;;;;;;;12.10;11.00;;;;;;;3.17;74.24;102058.81;10385143;28;20038;-73
2022/01/12 16:09:13;;;;;;;11.90;10.85;;;;;;;3.06;75.13;102073.22;10366236;28;20064;-73
2022/01/12 16:14:15;;;;;;;12.13;11.05;;;;;;;2.83;76.12;102075.03;10384744;28;20054;-73
2022/01/12 16:19:17;;;;;;;11.48;10.13;;;;;;;3.20;74.67;102074.50;10383818;28;20038;-73
2022/01/12 16:24:18;;;;;;;11.48;10.48;;;;;;;2.82;76.51;102083.69;10383796;28;20407;-74
2022/01/12 16:29:20;;;;;;;11.10;10.15;;;;;;;2.79;76.92;102078.41;10394133;28;20092;-73
2022/01/12 16:34:22;;;;;;;12.00;10.98;;;;;;;2.89;76.53;102083.06;10384300;28;20049;-74
2022/01/12 16:39:23;;;;;;;12.38;11.02;;;;;;;2.94;76.79;102099.66;10391001;28;20054;-73
2022/01/12 16:44:26;;;;;;;12.10;10.90;;;;;;;2.78;77.52;102100.88;10374988;28;20079;-74
2022/01/12 16:49:30;;;;;;;11.48;10.48;;;;;;;2.70;78.39;102088.47;10398161;28;20038;-73
2022/01/12 16:54:37;;;;;;;;;;;;;;;2.67;78.18;102101.38;10383560;28;20050;-72
2022/01/12 16:59:39;;;;;;;12.30;11.10;;;;;;;2.97;77.06;102107.56;10382604;28;19972;-73
2022/01/12 17:04:40;;;;;;;12.35;11.23;;;;;;;3.02;76.60;102110.31;10408920;28;20054;-73
2022/01/12 17:09:42;;;;;;;11.82;10.60;;;;;;;2.91;77.44;102107.34;10382156;28;20045;-74
2022/01/12 17:14:45;;;;;;;12.13;10.90;;;;;;;2.78;78.18;102106.06;10382692;28;20581;-73
2022/01/12 17:19:49;;;;;;;11.55;10.25;;;;;;;2.94;77.67;102102.25;10396653;28;20404;-73
2022/01/12 17:25:07;;;;;;;14.10;10.45;;;;;;;3.32;76.02;102097.41;10408449;28;20052;-72
2022/01/12 17:30:10;;;;;;;12.52;9.95;;;;;;;3.31;76.64;102103.41;10387574;28;20048;-72
2022/01/12 17:35:12;;;;;;;11.90;10.00;;;;;;;3.29;77.02;102094.72;10417329;28;20430;-74
2022/01/12 17:40:14;;;;;;;13.75;11.55;;;;;;;3.30;76.42;102117.25;10408353;28;20072;-73
2022/01/12 17:45:16;;;;;;;11.50;9.73;;;;;;;3.37;76.54;102115.75;10421960;28;20068;-74
2022/01/12 17:50:24;;;;;;;11.68;10.77;;;;;;;3.23;77.31;102103.22;10422058;28;20498;-73
2022/01/12 17:55:30;;;;;;;12.18;11.05;;;;;;;3.24;77.48;102096.28;10421242;28;20048;-74
2022/01/12 18:00:35;;;;;;;11.88;10.60;;;;;;;3.17;78.34;102089.13;10380003;28;20144;-73
2022/01/12 18:05:37;;;;;;;15.45;13.50;;;;;;;3.02;79.04;102081.72;10379814;28;20125;-73
2022/01/12 18:10:39;;;;;;;14.05;12.60;;;;;;;3.04;79.62;102104.31;10380421;28;20479;-73
2022/01/12 18:15:43;;;;;;;15.02;13.45;;;;;;;3.13;79.15;102103.72;10408924;23;20436;-72
2022/01/12 18:20:46;;;;;;;17.33;12.13;;;;;;;3.13;79.92;102123.63;10498035;28;20119;-76
2022/01/12 18:25:48;;;;;;;15.13;13.75;;;;;;;3.09;79.78;102122.66;10502919;28;20432;-74
2022/01/12 18:30:50;;;;;;;14.00;12.65;;;;;;;3.23;79.80;102130.88;10499446;28;20043;-76
2022/01/12 18:35:52;;;;;;;17.08;14.73;;;;;;;3.06;81.31;102130.38;10481081;28;20051;-75
2022/01/12 18:40:55;;;;;;;24.08;16.33;;;;;;;3.06;81.90;102148.56;10496107;28;20068;-75
2022/01/12 18:45:58;;;;;;;21.90;16.05;;;;;;;2.97;82.91;102140.47;10500820;28;20051;-75
2022/01/12 18:51:05;;;;;;;18.60;16.20;;;;;;;3.18;82.32;102155.84;10496204;28;20040;-75
2022/01/12 18:56:07;;;;;;;29.23;16.77;;;;;;;2.94;83.66;102159.41;10516227;28;20049;-76
2022/01/12 19:01:08;;;;;;;19.98;17.98;;;;;;;3.06;84.06;102165.88;10501048;28;20097;-75
2022/01/12 19:06:35;;;;;;;21.80;18.05;;;;;;;3.08;83.77;102167.66;10527886;28;20049;-75
2022/01/12 19:11:37;;;;;;;23.38;18.90;;;;;;;2.99;84.87;102165.63;10511560;28;20571;-76
2022/01/12 19:16:42;;;;;;;20.67;17.42;;;;;;;3.04;84.36;102169.28;10505021;28;20052;-76
2022/01/12 19:21:45;;;;;;;20.95;18.67;;;;;;;2.95;84.84;102174.16;10505171;28;20074;-75
2022/01/12 19:26:47;;;;;;;24.00;19.48;;;;;;;3.12;84.67;102172.13;10525213;28;20064;-75
2022/01/12 19:31:49;;;;;;;26.80;18.70;;;;;;;3.04;85.05;102165.78;10508254;28;20045;-74
2022/01/12 19:36:51;;;;;;;32.28;19.45;;;;;;;3.00;85.05;102166.53;10522150;28;20047;-76
2022/01/12 19:41:53;;;;;;;31.95;21.30;;;;;;;2.90;85.08;102170.53;10519421;28;20090;-75
2022/01/12 19:46:55;;;;;;;31.92;18.65;;;;;;;2.99;85.35;102178.63;10502484;28;20565;-77
2022/01/12 19:52:04;;;;;;;24.98;20.05;;;;;;;3.08;84.12;102184.97;10525985;28;20446;-76
2022/01/12 19:57:19;;;;;;;35.05;23.15;;;;;;;2.92;84.52;102184.47;10504352;28;20048;-75
2022/01/12 20:02:44;;;;;;;33.22;21.92;;;;;;;2.75;85.67;102183.91;10522724;28;20466;-76
2022/01/12 20:07:48;;;;;;;32.17;22.75;;;;;;;2.64;86.47;102190.41;10520551;28;20127;-75
2022/01/12 20:12:50;;;;;;;37.50;25.70;;;;;;;2.47;87.42;102186.34;10507009;28;20045;-74
2022/01/12 20:21:40;;;;;;;29.77;24.08;;;;;;;2.65;86.63;102191.28;10503729;28;20048;-76
2022/01/12 20:23:54;;;;;;;38.22;25.60;;;;;;;2.54;86.69;102188.34;10521153;28;20108;-76
2022/01/12 20:28:55;;;;;;;46.88;26.95;;;;;;;2.71;85.77;102186.34;10501644;28;20079;-75
2022/01/12 20:33:57;;;;;;;48.50;29.80;;;;;;;2.50;87.24;102186.47;10503181;28;20124;-76
2022/01/12 20:38:59;;;;;;;37.55;28.25;;;;;;;2.77;85.95;102182.22;10518130;28;20044;-76
2022/01/12 20:44:03;;;;;;;41.20;29.05;;;;;;;2.66;86.94;102177.50;10498849;28;20135;-76
2022/01/12 20:49:11;;;;;;;47.13;29.65;;;;;;;2.63;87.80;102180.00;10514916;28;20119;-76
2022/01/12 20:54:14;;;;;;;50.47;29.95;;;;;;;2.82;87.35;102184.09;10500020;28;20049;-75
2022/01/12 20:59:16;;;;;;;47.28;30.42;;;;;;;2.79;86.37;102192.69;10498078;28;20041;-76
2022/01/12 21:04:17;;;;;;;43.47;28.60;;;;;;;2.63;85.70;102198.16;10496888;28;20057;-74
2022/01/12 21:09:19;;;;;;;36.83;28.02;;;;;;;2.56;83.10;102201.34;10514548;28;20040;-76
2022/01/12 21:14:22;;;;;;;39.00;27.27;;;;;;;2.59;81.37;102201.47;10496704;28;20059;-75
2022/01/12 21:19:26;;;;;;;39.17;27.05;;;;;;;2.40;81.63;102206.00;10494746;28;20461;-71
2022/01/12 21:24:28;;;;;;;30.42;24.08;;;;;;;2.45;80.38;102211.38;10503648;28;20056;-70
2022/01/12 21:29:30;;;;;;;28.55;22.15;;;;;;;2.64;78.35;102221.56;10503830;28;20040;-70
2022/01/12 21:34:40;;;;;;;27.40;20.88;;;;;;;2.65;78.33;102212.94;10504591;28;20053;-71
2022/01/12 21:39:48;;;;;;;25.48;21.63;;;;;;;2.56;78.70;102209.16;10505963;28;20071;-70
2022/01/12 21:44:49;;;;;;;22.00;19.77;;;;;;;2.76;77.87;102214.22;10502816;28;20105;-71
2022/01/12 21:49:51;;;;;;;22.48;18.67;;;;;;;2.64;78.51;102224.16;10484818;28;20040;-71
2022/01/12 21:54:53;;;;;;;31.38;19.13;;;;;;;2.69;78.00;102213.94;10502934;28;20044;-70
2022/01/12 21:59:55;;;;;;;21.00;19.00;;;;;;;2.70;78.57;102233.88;10503548;28;20041;-71
2022/01/12 22:04:58;;;;;;;27.88;21.55;;;;;;;2.39;80.37;102245.78;10503988;28;20049;-70
2022/01/12 22:10:00;;;;;;;24.17;21.08;;;;;;;2.28;81.06;102234.97;10502736;28;20064;-71
2022/01/12 22:15:02;;;;;;;23.10;20.27;;;;;;;2.50;80.34;102230.59;10483791;28;20110;-71
2022/01/12 22:20:04;;;;;;;24.95;20.80;;;;;;;2.52;80.01;102231.50;10501414;28;20544;-70
2022/01/12 22:25:10;;;;;;;35.80;23.48;;;;;;;2.44;81.67;102233.84;10487988;28;20041;-70
2022/01/12 22:30:12;;;;;;;27.63;21.70;;;;;;;2.38;81.55;102244.00;10485505;28;20037;-71
2022/01/12 22:35:14;;;;;;;25.48;20.90;;;;;;;2.55;81.26;102238.53;10500487;28;20105;-70
2022/01/12 22:40:16;;;;;;;30.05;22.80;;;;;;;2.54;82.65;102227.28;10484840;28;20044;-71
2022/01/12 22:45:18;;;;;;;30.70;21.48;;;;;;;2.85;80.69;102217.97;10502690;28;20528;-70
2022/01/12 22:50:19;;;;;;;27.17;21.80;;;;;;;2.71;81.83;102217.50;10501144;28;20049;-70
2022/01/12 22:55:29;;;;;;;29.52;21.60;;;;;;;2.49;83.77;102221.03;10504886;28;20075;-70
2022/01/12 23:00:30;;;;;;;25.00;22.38;;;;;;;2.68;83.44;102230.38;10500997;28;20551;-70
2022/01/12 23:05:33;;;;;;;34.85;23.52;;;;;;;2.65;84.22;102219.84;10483788;28;20520;-70
2022/01/12 23:10:35;;;;;;;42.67;25.40;;;;;;;2.75;84.13;102222.84;10499611;28;20045;-70
2022/01/12 23:15:39;;;;;;;39.97;25.52;;;;;;;2.93;82.98;102220.00;10499783;28;20040;-70
2022/01/12 23:20:41;;;;;;;42.67;27.20;;;;;;;2.76;84.29;102211.63;10499479;28;20040;-69
2022/01/12 23:25:43;;;;;;;36.22;25.63;;;;;;;2.98;83.08;102207.16;10499842;28;20106;-71
2022/01/12 23:30:46;;;;;;;45.80;26.20;;;;;;;2.89;83.39;102207.75;10483083;28;20482;-70
2022/01/12 23:42:10;;;;;;;36.45;26.75;;;;;;;2.73;84.98;102201.13;10480888;28;20052;-70
2022/01/12 23:57:34;;;;;;;30.40;25.38;;;;;;;2.91;84.42;102200.88;10478664;28;20056;-71
